createdAt,value
2023-10-19T00:07:53.768Z,7.89
2023-10-19T00:17:54.330Z,7.89
2023-10-19T00:27:54.872Z,7.83
2023-10-19T00:37:55.445Z,7.74
2023-10-19T00:47:56.043Z,7.64
2023-10-19T00:57:56.582Z,7.57
2023-10-19T01:07:57.164Z,7.52
2023-10-19T01:17:57.863Z,7.53
2023-10-19T01:27:58.542Z,7.48
2023-10-19T01:37:59.065Z,7.53
2023-10-19T01:47:59.659Z,7.55
2023-10-19T01:58:00.180Z,7.53
2023-10-19T02:08:00.754Z,7.48
2023-10-19T02:18:01.351Z,7.53
2023-10-19T02:28:01.890Z,7.60
2023-10-19T02:38:02.422Z,7.67
2023-10-19T02:48:03.088Z,7.64
2023-10-19T02:58:03.640Z,7.60
2023-10-19T03:08:04.219Z,7.53
2023-10-19T03:18:04.766Z,7.67
2023-10-19T03:28:05.309Z,7.69
2023-10-19T03:38:05.829Z,7.60
2023-10-19T03:48:06.519Z,7.57
2023-10-19T03:58:07.042Z,7.53
2023-10-19T04:08:07.628Z,7.55
2023-10-19T04:18:08.204Z,7.48
2023-10-19T04:28:08.766Z,7.53
2023-10-19T04:38:09.336Z,7.42
2023-10-19T04:48:09.900Z,7.39
2023-10-19T04:58:10.463Z,7.34
2023-10-19T05:08:11.047Z,7.68
2023-10-19T05:18:11.636Z,7.63
2023-10-19T05:28:12.133Z,7.46
2023-10-19T05:38:12.634Z,7.32
2023-10-19T05:48:13.174Z,7.35
2023-10-19T05:58:13.663Z,7.25
2023-10-19T06:08:14.199Z,7.12
2023-10-19T06:18:14.734Z,7.06
2023-10-19T06:28:15.267Z,6.95
2023-10-19T06:38:17.320Z,6.91
2023-10-19T06:48:16.252Z,6.81
2023-10-19T06:58:16.743Z,6.94
2023-10-19T07:08:17.278Z,7.03
2023-10-19T07:18:17.927Z,7.09
2023-10-19T07:28:18.673Z,7.21
2023-10-19T07:38:19.180Z,7.28
2023-10-19T07:48:19.734Z,7.39
2023-10-19T07:58:20.236Z,7.58
2023-10-19T08:08:20.760Z,7.52
2023-10-19T08:18:21.215Z,7.57
2023-10-19T08:28:21.753Z,7.67
2023-10-19T08:38:22.223Z,7.87
2023-10-19T08:48:22.743Z,7.93
2023-10-19T08:58:23.302Z,8.08
2023-10-19T09:08:24.413Z,8.12
2023-10-19T09:18:24.417Z,8.38
2023-10-19T09:28:24.991Z,8.30
2023-10-19T09:38:25.461Z,8.25
2023-10-19T09:48:25.968Z,8.37
2023-10-19T09:58:26.497Z,8.44
2023-10-19T10:08:27.176Z,8.48
2023-10-19T10:18:27.691Z,8.65
2023-10-19T10:28:28.209Z,8.53
2023-10-19T10:38:28.661Z,8.48
2023-10-19T10:48:29.170Z,8.25
2023-10-19T10:58:29.671Z,8.11
2023-10-19T11:08:30.176Z,8.11
2023-10-19T11:18:30.675Z,8.15
2023-10-19T11:28:31.213Z,8.08
2023-10-19T11:38:33.353Z,8.04
2023-10-19T11:48:32.392Z,7.98
2023-10-19T11:58:32.914Z,7.95
2023-10-19T12:08:33.390Z,7.97
2023-10-19T12:18:33.863Z,8.15
2023-10-19T12:28:34.419Z,8.15
2023-10-19T12:38:34.851Z,8.18
2023-10-19T12:48:35.379Z,8.10
2023-10-19T12:58:35.875Z,7.97
2023-10-19T13:08:36.424Z,8.05
2023-10-19T13:18:36.949Z,7.93
2023-10-19T13:28:44.503Z,7.85
2023-10-19T13:38:37.993Z,7.86
2023-10-19T13:48:38.556Z,7.89
2023-10-19T13:58:39.121Z,7.92
2023-10-19T14:08:39.676Z,7.95
2023-10-19T14:18:40.269Z,7.83
2023-10-19T14:28:40.863Z,7.74
2023-10-19T14:38:41.370Z,7.69
2023-10-19T14:48:41.857Z,7.71
2023-10-19T14:58:42.396Z,7.69
2023-10-19T15:08:42.962Z,7.75
2023-10-19T15:18:43.457Z,7.72
2023-10-19T15:28:44.095Z,7.72
2023-10-19T15:38:44.543Z,7.74
2023-10-19T15:48:45.147Z,7.79
2023-10-19T15:58:45.695Z,7.82
2023-10-19T16:08:46.215Z,7.74
2023-10-19T16:18:46.679Z,7.79
2023-10-19T16:28:47.297Z,7.83
2023-10-19T16:38:47.816Z,7.87
2023-10-19T16:48:48.405Z,7.74
2023-10-19T16:58:48.961Z,7.72
2023-10-19T17:08:49.533Z,7.71
2023-10-19T17:18:50.071Z,7.80
2023-10-19T17:28:50.673Z,7.77
2023-10-19T17:38:51.213Z,7.85
2023-10-19T17:48:51.797Z,7.82
2023-10-19T17:58:52.389Z,7.89
2023-10-19T18:08:52.940Z,7.77
2023-10-19T18:18:53.484Z,7.72
2023-10-19T18:28:54.070Z,7.74
2023-10-19T18:38:54.630Z,7.77
2023-10-19T18:48:55.217Z,7.72
2023-10-19T18:58:55.809Z,7.72
2023-10-19T19:08:56.396Z,7.74
2023-10-19T19:18:56.916Z,7.69
2023-10-19T19:28:57.565Z,7.79
2023-10-19T19:38:58.091Z,7.74
2023-10-19T19:48:58.754Z,7.77
2023-10-19T19:58:59.325Z,7.71
2023-10-19T20:08:59.893Z,7.71
2023-10-19T20:19:00.447Z,7.64
2023-10-19T20:29:01.030Z,7.64
2023-10-19T20:39:01.559Z,7.67
2023-10-19T20:49:02.138Z,7.45
2023-10-19T20:59:02.701Z,7.45
2023-10-19T21:09:03.271Z,7.48
2023-10-19T21:19:03.821Z,7.48
2023-10-19T21:29:04.404Z,7.43
2023-10-19T21:39:11.925Z,7.45
2023-10-19T21:49:05.503Z,7.45
2023-10-19T21:59:06.110Z,7.45
2023-10-19T22:09:06.646Z,7.37
2023-10-19T22:19:07.181Z,7.35
2023-10-19T22:29:07.934Z,7.40
2023-10-19T22:39:08.478Z,7.43
2023-10-19T22:49:09.069Z,7.37
2023-10-19T22:59:09.797Z,7.43
2023-10-19T23:09:10.461Z,7.42
2023-10-19T23:19:10.948Z,7.39
2023-10-19T23:29:11.568Z,7.32
2023-10-19T23:39:12.250Z,7.32
2023-10-19T23:49:12.835Z,7.35
2023-10-19T23:59:13.395Z,7.39
